createdAt,value
2023-06-19T00:00:14.243Z,0.00
2023-06-19T00:01:09.394Z,0.00
2023-06-19T00:02:04.604Z,0.00
2023-06-19T00:02:59.904Z,0.00
2023-06-19T00:03:55.062Z,0.00
2023-06-19T00:04:50.268Z,0.00
2023-06-19T00:05:45.429Z,0.00
2023-06-19T00:06:40.666Z,0.00
2023-06-19T00:07:35.756Z,0.00
2023-06-19T00:08:30.824Z,0.00
2023-06-19T00:09:25.845Z,0.00
2023-06-19T00:10:21.188Z,0.00
2023-06-19T00:11:16.018Z,0.00
2023-06-19T00:12:11.183Z,0.00
2023-06-19T00:13:06.419Z,0.00
2023-06-19T00:14:01.409Z,0.00
2023-06-19T00:14:56.420Z,0.00
2023-06-19T00:15:51.583Z,0.00
2023-06-19T00:16:46.677Z,0.00
2023-06-19T00:17:41.615Z,0.00
2023-06-19T00:18:36.643Z,0.00
2023-06-19T00:19:31.739Z,0.00
2023-06-19T00:20:26.976Z,0.00
2023-06-19T00:21:21.909Z,0.00
2023-06-19T00:22:16.965Z,0.00
2023-06-19T00:23:12.216Z,0.00
2023-06-19T00:24:07.155Z,0.00
2023-06-19T00:25:02.206Z,0.00
2023-06-19T00:25:57.251Z,0.00
2023-06-19T00:26:52.292Z,0.00
2023-06-19T00:27:47.366Z,0.00
2023-06-19T00:28:42.497Z,0.00
2023-06-19T00:29:37.495Z,0.00
2023-06-19T00:30:32.560Z,0.00
2023-06-19T00:31:27.706Z,0.00
2023-06-19T00:32:22.947Z,0.00
2023-06-19T00:33:18.903Z,0.00
2023-06-19T00:34:13.805Z,0.00
2023-06-19T00:35:09.000Z,0.00
2023-06-19T00:36:05.191Z,0.00
2023-06-19T00:37:00.429Z,0.00
2023-06-19T00:37:56.340Z,0.00
2023-06-19T00:38:51.371Z,0.00
2023-06-19T00:39:46.591Z,0.00
2023-06-19T00:40:42.242Z,0.00
2023-06-19T00:41:37.462Z,0.00
2023-06-19T00:42:33.914Z,0.00
2023-06-19T00:43:28.523Z,0.00
2023-06-19T00:44:23.683Z,0.00
2023-06-19T00:45:19.937Z,0.00
2023-06-19T00:46:15.188Z,0.00
2023-06-19T00:47:10.246Z,0.00
2023-06-19T00:48:06.781Z,0.00
2023-06-19T00:49:01.841Z,0.00
2023-06-19T00:49:57.602Z,0.00
2023-06-19T00:50:52.769Z,0.00
2023-06-19T00:51:47.996Z,0.00
2023-06-19T00:52:43.734Z,0.00
2023-06-19T00:53:39.174Z,0.00
2023-06-19T00:54:34.751Z,0.00
2023-06-19T00:55:29.959Z,0.00
2023-06-19T00:56:25.183Z,0.00
2023-06-19T00:57:21.059Z,0.00
2023-06-19T00:58:16.466Z,0.00
2023-06-19T00:59:11.635Z,0.00
2023-06-19T01:00:07.987Z,0.00
2023-06-19T01:01:09.364Z,0.00
2023-06-19T01:02:00.110Z,0.00
2023-06-19T01:02:54.277Z,0.00
2023-06-19T01:03:49.768Z,0.00
2023-06-19T01:04:45.334Z,0.00
2023-06-19T01:05:40.507Z,0.00
2023-06-19T01:06:36.413Z,0.00
2023-06-19T01:07:31.455Z,0.00
2023-06-19T01:08:26.965Z,0.00
2023-06-19T01:09:22.587Z,0.00
2023-06-19T01:10:17.791Z,0.00
2023-06-19T01:12:10.243Z,0.00
2023-06-19T01:13:04.489Z,0.00
2023-06-19T01:14:00.177Z,0.00
2023-06-19T01:14:55.288Z,0.00
2023-06-19T01:15:50.719Z,0.00
2023-06-19T01:16:46.428Z,0.00
2023-06-19T01:17:41.528Z,0.00
2023-06-19T01:18:37.321Z,0.00
2023-06-19T01:19:32.522Z,0.00
2023-06-19T01:20:27.825Z,0.00
2023-06-19T01:21:23.609Z,0.00
2023-06-19T01:22:18.787Z,0.00
2023-06-19T01:23:14.162Z,0.00
2023-06-19T01:24:10.214Z,0.00
2023-06-19T01:25:05.441Z,0.00
2023-06-19T01:26:01.175Z,0.00
2023-06-19T01:26:56.376Z,0.00
2023-06-19T01:27:51.438Z,0.00
2023-06-19T01:28:47.522Z,0.00
2023-06-19T01:31:05.938Z,0.00
2023-06-19T01:32:01.022Z,0.00
2023-06-19T01:32:56.273Z,0.00
2023-06-19T01:33:51.492Z,0.00
2023-06-19T01:34:46.586Z,0.00
2023-06-19T01:35:41.617Z,0.00
2023-06-19T01:36:36.811Z,0.00
2023-06-19T01:37:32.103Z,0.00
2023-06-19T01:38:27.104Z,0.00
2023-06-19T01:39:22.477Z,0.00
2023-06-19T01:40:17.466Z,0.00
2023-06-19T01:41:12.765Z,0.00
2023-06-19T01:42:07.783Z,0.00
2023-06-19T01:43:02.960Z,0.00
2023-06-19T01:43:58.309Z,0.00
2023-06-19T01:44:53.335Z,0.00
2023-06-19T01:45:48.492Z,0.00
2023-06-19T01:46:43.741Z,0.00
2023-06-19T01:47:38.915Z,0.00
2023-06-19T01:48:34.092Z,0.00
2023-06-19T01:49:29.388Z,0.00
2023-06-19T01:50:24.742Z,0.00
2023-06-19T01:51:19.622Z,0.00
2023-06-19T01:52:14.680Z,0.00
2023-06-19T01:53:09.833Z,0.00
2023-06-19T01:54:05.212Z,0.00
2023-06-19T01:55:00.145Z,0.00
2023-06-19T01:55:55.296Z,0.00
2023-06-19T01:56:50.464Z,0.00
2023-06-19T01:57:45.648Z,0.00
2023-06-19T01:58:40.982Z,0.00
2023-06-19T01:59:36.035Z,0.00
2023-06-19T02:00:31.155Z,0.00
2023-06-19T02:01:26.472Z,0.00
2023-06-19T02:02:21.516Z,0.00
2023-06-19T02:03:16.758Z,0.00
2023-06-19T02:04:12.009Z,0.00
2023-06-19T02:05:07.034Z,0.00
2023-06-19T02:06:02.176Z,0.00
2023-06-19T02:06:57.373Z,0.00
2023-06-19T02:07:52.514Z,0.00
2023-06-19T02:08:47.700Z,0.00
2023-06-19T02:09:42.911Z,0.00
2023-06-19T02:10:38.074Z,0.00
2023-06-19T02:11:33.372Z,0.00
2023-06-19T02:12:28.433Z,0.00
2023-06-19T02:13:23.623Z,0.00
2023-06-19T02:14:18.796Z,0.00
2023-06-19T02:15:14.113Z,0.00
2023-06-19T02:16:09.235Z,0.00
2023-06-19T02:17:04.287Z,0.00
2023-06-19T02:17:59.521Z,0.00
2023-06-19T02:18:54.635Z,0.00
2023-06-19T02:19:49.871Z,0.00
2023-06-19T02:20:45.033Z,0.00
2023-06-19T02:21:40.334Z,0.00
2023-06-19T02:22:35.355Z,0.00
2023-06-19T02:23:30.542Z,0.00
2023-06-19T02:24:25.918Z,0.00
2023-06-19T02:25:20.955Z,0.00
2023-06-19T02:26:16.084Z,0.00
2023-06-19T02:27:11.269Z,0.00
2023-06-19T02:28:06.412Z,0.00
2023-06-19T02:29:01.584Z,0.00
2023-06-19T02:29:56.798Z,0.00
2023-06-19T02:30:51.951Z,0.00
2023-06-19T02:31:47.254Z,0.00
2023-06-19T02:32:42.486Z,0.00
2023-06-19T02:33:37.503Z,0.00
2023-06-19T02:34:32.695Z,0.00
2023-06-19T02:35:28.011Z,0.00
2023-06-19T02:36:23.052Z,0.00
2023-06-19T02:37:18.244Z,0.00
2023-06-19T02:38:13.419Z,1.00
2023-06-19T02:39:08.551Z,1.00
2023-06-19T02:40:03.764Z,1.00
2023-06-19T02:40:59.024Z,1.00
2023-06-19T02:41:54.282Z,1.00
2023-06-19T02:42:49.306Z,2.00
2023-06-19T02:43:44.472Z,1.00
2023-06-19T02:44:39.827Z,2.00
2023-06-19T02:45:34.938Z,2.00
2023-06-19T02:46:30.074Z,2.00
2023-06-19T02:47:25.275Z,3.00
2023-06-19T02:48:20.415Z,4.00
2023-06-19T02:49:15.612Z,4.00
2023-06-19T02:50:10.781Z,4.00
2023-06-19T02:51:05.977Z,5.00
2023-06-19T02:52:01.231Z,6.00
2023-06-19T02:52:56.299Z,6.00
2023-06-19T02:53:51.434Z,7.00
2023-06-19T02:54:46.877Z,7.00
2023-06-19T02:55:41.747Z,9.00
2023-06-19T02:56:36.917Z,9.00
2023-06-19T02:57:32.256Z,12.00
2023-06-19T02:58:27.404Z,12.00
2023-06-19T02:59:22.745Z,14.00
2023-06-19T03:00:17.891Z,15.00
2023-06-19T03:01:13.267Z,17.00
2023-06-19T03:02:08.490Z,19.00
2023-06-19T03:03:03.627Z,24.00
2023-06-19T03:03:58.735Z,24.00
2023-06-19T03:04:54.131Z,26.00
2023-06-19T03:05:49.214Z,30.00
2023-06-19T03:06:44.444Z,31.00
2023-06-19T03:07:39.656Z,37.00
2023-06-19T03:08:34.864Z,40.00
2023-06-19T03:09:30.284Z,45.00
2023-06-19T03:10:25.333Z,47.00
2023-06-19T03:11:20.506Z,55.00
2023-06-19T03:12:15.840Z,66.00
2023-06-19T03:13:10.940Z,68.00
2023-06-19T03:14:06.338Z,76.00
2023-06-19T03:15:01.330Z,81.00
2023-06-19T03:15:56.581Z,99.00
2023-06-19T03:16:51.869Z,95.00
2023-06-19T03:17:47.089Z,107.00
2023-06-19T03:18:42.271Z,108.00
2023-06-19T03:19:37.694Z,121.00
2023-06-19T03:20:32.740Z,128.00
2023-06-19T03:21:27.976Z,152.00
2023-06-19T03:22:23.397Z,150.00
2023-06-19T03:23:18.582Z,157.00
2023-06-19T03:24:14.096Z,164.00
2023-06-19T03:25:09.172Z,182.00
2023-06-19T03:26:04.502Z,189.00
2023-06-19T03:26:59.817Z,205.00
2023-06-19T03:27:55.202Z,231.00
2023-06-19T03:28:50.527Z,243.00
2023-06-19T03:29:46.032Z,275.00
2023-06-19T03:30:41.234Z,300.00
2023-06-19T03:31:36.424Z,331.00
2023-06-19T03:32:32.570Z,344.00
2023-06-19T03:33:27.074Z,385.00
2023-06-19T03:34:22.389Z,399.00
2023-06-19T03:35:17.481Z,427.00
2023-06-19T03:36:12.792Z,430.00
2023-06-19T03:37:08.123Z,474.00
2023-06-19T03:38:03.312Z,471.00
2023-06-19T03:38:58.846Z,544.00
2023-06-19T03:39:53.879Z,520.00
2023-06-19T03:40:49.241Z,586.00
2023-06-19T03:41:44.546Z,603.00
2023-06-19T03:42:40.017Z,638.00
2023-06-19T03:43:35.386Z,643.00
2023-06-19T03:44:30.611Z,658.00
2023-06-19T03:45:25.828Z,713.00
2023-06-19T03:46:21.226Z,753.00
2023-06-19T03:47:16.371Z,768.00
2023-06-19T03:48:11.755Z,795.00
2023-06-19T03:49:06.969Z,826.00
2023-06-19T03:50:18.918Z,848.00
2023-06-19T03:50:58.552Z,887.00
2023-06-19T03:51:52.828Z,902.00
2023-06-19T03:52:48.307Z,915.00
2023-06-19T03:53:43.705Z,942.00
2023-06-19T03:54:38.715Z,1018.00
2023-06-19T03:55:34.227Z,1046.00
2023-06-19T03:56:29.409Z,998.00
2023-06-19T03:57:24.797Z,1059.00
2023-06-19T03:58:20.048Z,1067.00
2023-06-19T03:59:15.625Z,1145.00
2023-06-19T04:00:10.935Z,1213.00
2023-06-19T04:01:06.150Z,1245.00
2023-06-19T04:02:01.417Z,1237.00
2023-06-19T04:02:57.015Z,1406.00
2023-06-19T04:03:52.364Z,1427.00
2023-06-19T04:04:47.488Z,1491.00
2023-06-19T04:05:42.744Z,1580.00
2023-06-19T04:06:38.191Z,1630.00
2023-06-19T04:07:33.388Z,1759.00
2023-06-19T04:08:28.986Z,1877.00
2023-06-19T04:09:24.115Z,1955.00
2023-06-19T04:10:19.567Z,2121.00
2023-06-19T04:11:14.881Z,2136.00
2023-06-19T04:12:10.343Z,2161.00
2023-06-19T04:13:05.760Z,2333.00
2023-06-19T04:14:01.315Z,2444.00
2023-06-19T04:14:56.473Z,2500.00
2023-06-19T04:15:51.860Z,2585.00
2023-06-19T04:16:47.264Z,2625.00
2023-06-19T04:17:42.632Z,2728.00
2023-06-19T04:18:38.157Z,2780.00
2023-06-19T04:19:33.292Z,2819.00
2023-06-19T04:20:28.890Z,2948.00
2023-06-19T04:21:24.053Z,2957.00
2023-06-19T04:22:19.504Z,2983.00
2023-06-19T04:23:15.112Z,3135.00
2023-06-19T04:24:10.373Z,3094.00
2023-06-19T04:25:05.560Z,3153.00
2023-06-19T04:26:01.062Z,3046.00
2023-06-19T04:26:56.372Z,3188.00
2023-06-19T04:27:51.672Z,3197.00
2023-06-19T04:28:47.020Z,3249.00
2023-06-19T04:29:42.339Z,3367.00
2023-06-19T04:30:37.614Z,3417.00
2023-06-19T04:31:33.091Z,3439.00
2023-06-19T04:32:28.445Z,3424.00
2023-06-19T04:33:24.192Z,3465.00
2023-06-19T04:34:19.248Z,3539.00
2023-06-19T04:35:14.711Z,3536.00
2023-06-19T04:36:10.022Z,3520.00
2023-06-19T04:37:05.475Z,3531.00
2023-06-19T04:38:00.774Z,3346.00
2023-06-19T04:38:56.275Z,3309.00
2023-06-19T04:39:51.426Z,3163.00
2023-06-19T04:40:46.924Z,2992.00
2023-06-19T04:41:42.244Z,2966.00
2023-06-19T04:42:37.682Z,3086.00
2023-06-19T04:43:33.289Z,2737.00
2023-06-19T04:44:28.506Z,2700.00
2023-06-19T04:45:23.647Z,2647.00
2023-06-19T04:46:19.072Z,2667.00
2023-06-19T04:47:14.419Z,2813.00
2023-06-19T04:48:09.802Z,2923.00
2023-06-19T04:49:05.092Z,3219.00
2023-06-19T04:50:00.551Z,3018.00
2023-06-19T04:50:55.846Z,3162.00
2023-06-19T04:51:51.209Z,2886.00
2023-06-19T04:52:46.659Z,2824.00
2023-06-19T04:53:42.106Z,2763.00
2023-06-19T04:54:37.416Z,2786.00
2023-06-19T04:55:32.884Z,2716.00
2023-06-19T04:56:28.173Z,2726.00
2023-06-19T04:57:23.669Z,2737.00
2023-06-19T04:58:18.993Z,2717.00
2023-06-19T04:59:14.343Z,2587.00
2023-06-19T05:00:09.631Z,2478.00
2023-06-19T05:01:05.145Z,2347.00
2023-06-19T05:02:00.480Z,2190.00
2023-06-19T05:02:55.999Z,2036.00
2023-06-19T05:03:51.277Z,2142.00
2023-06-19T05:04:46.737Z,2067.00
2023-06-19T05:05:41.994Z,2324.00
2023-06-19T05:06:37.337Z,2354.00
2023-06-19T05:07:32.685Z,2487.00
2023-06-19T05:08:28.170Z,2525.00
2023-06-19T05:09:23.345Z,2646.00
2023-06-19T05:10:18.831Z,2768.00
2023-06-19T05:11:14.132Z,2964.00
2023-06-19T05:12:09.487Z,3219.00
2023-06-19T05:13:04.827Z,3290.00
2023-06-19T05:14:00.311Z,3427.00
2023-06-19T05:14:56.320Z,3480.00
2023-06-19T05:15:51.899Z,3634.00
2023-06-19T05:16:47.323Z,3816.00
2023-06-19T05:17:42.715Z,3946.00
2023-06-19T05:18:38.189Z,3851.00
2023-06-19T05:19:33.144Z,3995.00
2023-06-19T05:20:28.181Z,4083.00
2023-06-19T05:21:23.401Z,4209.00
2023-06-19T05:22:18.486Z,4210.00
2023-06-19T05:23:13.709Z,4289.00
2023-06-19T05:24:08.654Z,4293.00
2023-06-19T05:25:03.691Z,4393.00
2023-06-19T05:25:58.618Z,4468.00
2023-06-19T05:26:53.707Z,4380.00
2023-06-19T05:27:49.054Z,4434.00
2023-06-19T05:28:43.839Z,4538.00
2023-06-19T05:29:38.890Z,4460.00
2023-06-19T05:30:34.063Z,4523.00
2023-06-19T05:31:29.111Z,4681.00
2023-06-19T05:32:24.373Z,4931.00
2023-06-19T05:33:19.259Z,4950.00
2023-06-19T05:34:14.404Z,5044.00
2023-06-19T05:35:09.444Z,5054.00
2023-06-19T05:36:04.535Z,5004.00
2023-06-19T05:36:59.539Z,5103.00
2023-06-19T05:37:54.647Z,5137.00
2023-06-19T05:38:49.827Z,5084.00
2023-06-19T05:39:45.355Z,5170.00
2023-06-19T05:40:40.693Z,5008.00
2023-06-19T05:41:36.151Z,5129.00
2023-06-19T05:42:31.644Z,5122.00
2023-06-19T05:43:26.881Z,5250.00
2023-06-19T05:44:22.176Z,5312.00
2023-06-19T05:45:17.809Z,5392.00
2023-06-19T05:46:13.101Z,5520.00
2023-06-19T05:47:08.359Z,5645.00
2023-06-19T05:48:03.884Z,5714.00
2023-06-19T05:48:59.110Z,5950.00
2023-06-19T05:49:54.397Z,6150.00
2023-06-19T05:50:49.748Z,6702.00
2023-06-19T05:51:45.174Z,6311.00
2023-06-19T05:52:40.647Z,6465.00
2023-06-19T05:53:35.968Z,6348.00
2023-06-19T05:54:31.287Z,6491.00
2023-06-19T05:55:26.401Z,6610.00
2023-06-19T05:56:22.291Z,6284.00
2023-06-19T05:57:16.411Z,6093.00
2023-06-19T05:58:11.520Z,5700.00
2023-06-19T05:59:06.531Z,5377.00
2023-06-19T06:00:01.598Z,5148.00
2023-06-19T06:00:56.741Z,5033.00
2023-06-19T06:01:52.032Z,4971.00
2023-06-19T06:02:47.188Z,4374.00
2023-06-19T06:03:41.987Z,4219.00
2023-06-19T06:04:37.074Z,3963.00
2023-06-19T06:05:32.187Z,3630.00
2023-06-19T06:06:27.222Z,3597.00
2023-06-19T06:07:22.416Z,3271.00
2023-06-19T06:08:19.881Z,3318.00
2023-06-19T06:09:14.933Z,3126.00
2023-06-19T06:10:10.114Z,3250.00
2023-06-19T06:11:05.201Z,3038.00
2023-06-19T06:12:00.215Z,3252.00
2023-06-19T06:12:55.437Z,3343.00
2023-06-19T06:13:50.470Z,3533.00
2023-06-19T06:14:45.434Z,3882.00
2023-06-19T06:15:40.504Z,4171.00
2023-06-19T06:16:35.728Z,4611.00
2023-06-19T06:17:30.968Z,4669.00
2023-06-19T06:18:25.803Z,5247.00
2023-06-19T06:19:20.861Z,5436.00
2023-06-19T06:20:15.877Z,6031.00
2023-06-19T06:21:10.911Z,6740.00
2023-06-19T06:22:06.520Z,6608.00
2023-06-19T06:23:01.713Z,6805.00
2023-06-19T06:23:57.211Z,6876.00
2023-06-19T06:24:52.638Z,6737.00
2023-06-19T06:25:47.992Z,6494.00
2023-06-19T06:26:43.414Z,6488.00
2023-06-19T06:27:39.082Z,6454.00
2023-06-19T06:28:34.270Z,6609.00
2023-06-19T06:29:29.724Z,6956.00
2023-06-19T06:30:25.325Z,7069.00
2023-06-19T06:31:24.589Z,7084.00
2023-06-19T06:32:20.074Z,6973.00
2023-06-19T06:33:15.404Z,6839.00
2023-06-19T06:34:10.612Z,6997.00
2023-06-19T06:35:06.050Z,7524.00
2023-06-19T06:36:01.398Z,7773.00
2023-06-19T06:37:05.178Z,8777.00
2023-06-19T06:37:53.300Z,9170.00
2023-06-19T06:38:47.711Z,10442.00
2023-06-19T06:39:43.034Z,10990.00
2023-06-19T06:40:38.579Z,11870.00
2023-06-19T06:41:34.260Z,12451.00
2023-06-19T06:42:29.521Z,12320.00
2023-06-19T06:43:24.858Z,13210.00
2023-06-19T06:44:20.388Z,12084.00
2023-06-19T06:45:15.447Z,13329.00
2023-06-19T06:46:10.646Z,12158.00
2023-06-19T06:47:05.919Z,11732.00
2023-06-19T06:48:00.931Z,11522.00
2023-06-19T06:48:55.932Z,10756.00
2023-06-19T06:49:50.972Z,10763.00
2023-06-19T06:50:46.043Z,10849.00
2023-06-19T06:51:41.063Z,11177.00
2023-06-19T06:52:38.062Z,12029.00
2023-06-19T06:53:32.975Z,12049.00
2023-06-19T06:54:27.983Z,11680.00
2023-06-19T06:55:23.024Z,12501.00
2023-06-19T06:56:18.011Z,12533.00
2023-06-19T06:57:13.317Z,12299.00
2023-06-19T06:58:08.104Z,12390.00
2023-06-19T06:59:03.144Z,12334.00
2023-06-19T06:59:58.595Z,12892.00
2023-06-19T07:00:53.890Z,12654.00
2023-06-19T07:01:50.608Z,13026.00
2023-06-19T07:02:46.418Z,12984.00
2023-06-19T07:03:41.740Z,13070.00
2023-06-19T07:04:37.142Z,11701.00
2023-06-19T07:05:32.532Z,10201.00
2023-06-19T07:06:28.441Z,8496.00
2023-06-19T07:07:24.053Z,7748.00
2023-06-19T07:08:19.692Z,7488.00
2023-06-19T07:09:14.816Z,6807.00
2023-06-19T07:10:10.432Z,6497.00
2023-06-19T07:11:06.041Z,6731.00
2023-06-19T07:12:01.652Z,6966.00
2023-06-19T07:12:56.828Z,7154.00
2023-06-19T07:13:53.232Z,7293.00
2023-06-19T07:14:48.694Z,7568.00
2023-06-19T07:15:44.418Z,7526.00
2023-06-19T07:16:39.722Z,7573.00
2023-06-19T07:17:35.208Z,7882.00
2023-06-19T07:18:30.789Z,7902.00
2023-06-19T07:19:26.138Z,8305.00
2023-06-19T07:20:21.999Z,8583.00
2023-06-19T07:21:17.224Z,9585.00
2023-06-19T07:22:12.834Z,9942.00
2023-06-19T07:23:08.604Z,10718.00
2023-06-19T07:24:04.145Z,11046.00
2023-06-19T07:24:59.512Z,11358.00
2023-06-19T07:25:56.094Z,11685.00
2023-06-19T07:26:51.687Z,11610.00
2023-06-19T07:27:47.224Z,11619.00
2023-06-19T07:28:42.616Z,11455.00
2023-06-19T07:29:37.991Z,11316.00
2023-06-19T07:30:33.939Z,11407.00
2023-06-19T07:31:29.312Z,11497.00
2023-06-19T07:32:25.366Z,11611.00
2023-06-19T07:33:20.589Z,11560.00
2023-06-19T07:35:41.125Z,11863.00
2023-06-19T07:36:34.797Z,11721.00
2023-06-19T07:37:30.057Z,11979.00
2023-06-19T07:38:25.446Z,12283.00
2023-06-19T07:39:20.978Z,12601.00
2023-06-19T07:40:16.451Z,12504.00
2023-06-19T07:41:11.854Z,12372.00
2023-06-19T07:42:07.274Z,12037.00
2023-06-19T07:43:02.615Z,11700.00
2023-06-19T07:43:57.990Z,11867.00
2023-06-19T07:44:53.626Z,11869.00
2023-06-19T07:45:49.029Z,12126.00
2023-06-19T07:46:44.553Z,12736.00
2023-06-19T07:47:39.809Z,13202.00
2023-06-19T07:48:35.295Z,13132.00
2023-06-19T07:49:30.787Z,13027.00
2023-06-19T07:50:27.760Z,12937.00
2023-06-19T07:51:21.855Z,12974.00
2023-06-19T07:52:17.126Z,13009.00
2023-06-19T07:53:12.586Z,13198.00
2023-06-19T07:54:08.091Z,13122.00
2023-06-19T07:55:03.278Z,13296.00
2023-06-19T07:55:58.654Z,12985.00
2023-06-19T07:56:54.200Z,13126.00
2023-06-19T07:57:49.443Z,13132.00
2023-06-19T07:58:44.792Z,13473.00
2023-06-19T07:59:40.211Z,15079.00
2023-06-19T08:00:35.567Z,16856.00
2023-06-19T08:01:31.245Z,16182.00
2023-06-19T08:02:26.626Z,15133.00
2023-06-19T08:03:21.929Z,14910.00
2023-06-19T08:04:17.273Z,14951.00
2023-06-19T08:05:12.919Z,15166.00
2023-06-19T08:06:08.080Z,15711.00
2023-06-19T08:07:04.004Z,16281.00
2023-06-19T08:07:58.975Z,17232.00
2023-06-19T08:08:54.536Z,17488.00
2023-06-19T08:09:57.004Z,17536.00
2023-06-19T08:10:46.380Z,17944.00
2023-06-19T08:11:40.843Z,17864.00
2023-06-19T08:12:36.054Z,18552.00
2023-06-19T08:13:31.528Z,18632.00
2023-06-19T08:14:26.747Z,19608.00
2023-06-19T08:15:22.088Z,19776.00
2023-06-19T08:16:17.853Z,20152.00
2023-06-19T08:17:13.228Z,20376.00
2023-06-19T08:18:08.790Z,22112.00
2023-06-19T08:19:04.291Z,45648.00
2023-06-19T08:19:59.900Z,41256.00
2023-06-19T08:20:55.239Z,33352.00
2023-06-19T08:21:50.997Z,26272.00
2023-06-19T08:22:46.191Z,32744.00
2023-06-19T08:23:41.700Z,33080.00
2023-06-19T08:24:37.049Z,31440.00
2023-06-19T08:25:32.471Z,31352.00
2023-06-19T08:26:28.011Z,50112.00
2023-06-19T08:27:23.429Z,29792.00
2023-06-19T08:28:18.681Z,44000.00
2023-06-19T08:29:14.252Z,65535.00
2023-06-19T08:30:09.831Z,65535.00
2023-06-19T08:31:05.255Z,40632.00
2023-06-19T08:32:00.603Z,42608.00
2023-06-19T08:32:56.071Z,48160.00
2023-06-19T08:33:54.517Z,31648.00
2023-06-19T08:34:47.080Z,27856.00
2023-06-19T08:35:42.446Z,26976.00
2023-06-19T08:36:38.206Z,23480.00
2023-06-19T08:37:33.547Z,23144.00
2023-06-19T08:38:28.922Z,29752.00
2023-06-19T08:39:25.032Z,21904.00
2023-06-19T08:40:19.853Z,20304.00
2023-06-19T08:41:15.024Z,20976.00
2023-06-19T08:42:10.609Z,18576.00
2023-06-19T08:43:06.023Z,18224.00
2023-06-19T08:44:01.841Z,20080.00
2023-06-19T08:44:57.137Z,21664.00
2023-06-19T08:45:52.776Z,18832.00
2023-06-19T08:46:47.979Z,18872.00
2023-06-19T08:47:43.421Z,19544.00
2023-06-19T08:48:38.781Z,20488.00
2023-06-19T08:49:34.320Z,23408.00
2023-06-19T08:50:29.907Z,54472.00
2023-06-19T08:51:25.211Z,30240.00
2023-06-19T08:52:20.516Z,28056.00
2023-06-19T08:53:16.111Z,65535.00
2023-06-19T08:54:11.500Z,65240.00
2023-06-19T08:55:06.984Z,31608.00
2023-06-19T08:56:02.483Z,52600.00
2023-06-19T08:56:58.011Z,65535.00
2023-06-19T08:57:53.451Z,65535.00
2023-06-19T08:58:48.833Z,65535.00
2023-06-19T08:59:44.253Z,65535.00
2023-06-19T09:00:40.092Z,65535.00
2023-06-19T09:01:35.307Z,65535.00
2023-06-19T09:02:30.727Z,65535.00
2023-06-19T09:03:26.283Z,65535.00
2023-06-19T09:04:21.645Z,65535.00
2023-06-19T09:05:17.186Z,65535.00
2023-06-19T09:06:12.927Z,65535.00
2023-06-19T09:07:07.939Z,65535.00
2023-06-19T09:08:03.485Z,65535.00
2023-06-19T09:08:58.907Z,65535.00
2023-06-19T09:09:54.295Z,65535.00
2023-06-19T09:10:49.852Z,65535.00
2023-06-19T09:11:45.135Z,65535.00
2023-06-19T09:12:40.638Z,65535.00
2023-06-19T09:13:36.275Z,65535.00
2023-06-19T09:14:31.494Z,65535.00
2023-06-19T09:15:26.874Z,65535.00
2023-06-19T09:16:22.513Z,65535.00
2023-06-19T09:17:17.760Z,65535.00
2023-06-19T09:18:13.120Z,65535.00
2023-06-19T09:19:08.501Z,65535.00
2023-06-19T09:20:03.967Z,65535.00
2023-06-19T09:20:59.367Z,65535.00
2023-06-19T09:21:54.857Z,65535.00
2023-06-19T09:22:50.365Z,65535.00
2023-06-19T09:23:46.042Z,65535.00
2023-06-19T09:24:41.453Z,65535.00
2023-06-19T09:25:36.880Z,65535.00
2023-06-19T09:26:32.251Z,65535.00
2023-06-19T09:27:27.737Z,65535.00
2023-06-19T09:28:23.485Z,65535.00
2023-06-19T09:29:21.336Z,65535.00
2023-06-19T09:30:14.523Z,65535.00
2023-06-19T09:31:10.010Z,65535.00
2023-06-19T09:32:05.518Z,65535.00
2023-06-19T09:33:01.183Z,65535.00
2023-06-19T09:33:56.499Z,65535.00
2023-06-19T09:34:51.747Z,65535.00
2023-06-19T09:35:47.414Z,65535.00
2023-06-19T09:36:42.748Z,65535.00
2023-06-19T09:37:38.284Z,65535.00
2023-06-19T09:38:33.860Z,65535.00
2023-06-19T09:39:29.277Z,65535.00
2023-06-19T09:40:25.052Z,65535.00
2023-06-19T09:41:20.501Z,65535.00
2023-06-19T09:42:15.551Z,65535.00
2023-06-19T09:43:11.036Z,65535.00
2023-06-19T09:44:06.494Z,65535.00
2023-06-19T09:45:01.904Z,65535.00
2023-06-19T09:45:57.574Z,65535.00
2023-06-19T09:46:52.932Z,65535.00
2023-06-19T09:47:50.523Z,65535.00
2023-06-19T09:48:43.935Z,65535.00
2023-06-19T09:49:39.378Z,65535.00
2023-06-19T09:50:34.982Z,65535.00
2023-06-19T09:51:30.327Z,65535.00
2023-06-19T09:52:25.842Z,65535.00
2023-06-19T09:53:21.443Z,65535.00
2023-06-19T09:54:16.907Z,65535.00
2023-06-19T09:55:12.423Z,65535.00
2023-06-19T09:56:08.017Z,65535.00
2023-06-19T09:57:03.634Z,65535.00
2023-06-19T09:57:58.863Z,65535.00
2023-06-19T09:58:54.269Z,65535.00
2023-06-19T09:59:49.883Z,65535.00
2023-06-19T10:00:45.110Z,65535.00
2023-06-19T10:01:40.861Z,65535.00
2023-06-19T10:02:36.247Z,65535.00
2023-06-19T10:03:31.736Z,65535.00
2023-06-19T10:04:27.076Z,65535.00
2023-06-19T10:05:22.619Z,65535.00
2023-06-19T10:06:18.230Z,65535.00
2023-06-19T10:07:13.780Z,65535.00
2023-06-19T10:08:09.265Z,65535.00
2023-06-19T10:09:04.717Z,65535.00
2023-06-19T10:10:00.204Z,65535.00
2023-06-19T10:10:55.926Z,65535.00
2023-06-19T10:11:51.221Z,65535.00
2023-06-19T10:12:46.854Z,65535.00
2023-06-19T10:13:42.375Z,65535.00
2023-06-19T10:14:37.938Z,65535.00
2023-06-19T10:15:33.368Z,65535.00
2023-06-19T10:16:30.209Z,65535.00
2023-06-19T10:17:24.259Z,65535.00
2023-06-19T10:18:19.771Z,65535.00
2023-06-19T10:19:15.090Z,65535.00
2023-06-19T10:20:10.688Z,65535.00
2023-06-19T10:21:06.410Z,65535.00
2023-06-19T10:22:01.663Z,65535.00
2023-06-19T10:22:57.065Z,65535.00
2023-06-19T10:23:52.742Z,65535.00
2023-06-19T10:24:48.246Z,65535.00
2023-06-19T10:25:43.708Z,65535.00
2023-06-19T10:26:39.469Z,65535.00
2023-06-19T10:27:34.666Z,65535.00
2023-06-19T10:28:30.150Z,65535.00
2023-06-19T10:29:25.392Z,28992.00
2023-06-19T10:30:21.071Z,42576.00
2023-06-19T10:31:16.306Z,63096.00
2023-06-19T10:32:11.736Z,65535.00
2023-06-19T10:33:07.144Z,59320.00
2023-06-19T10:34:02.626Z,65535.00
2023-06-19T10:34:58.267Z,43360.00
2023-06-19T10:35:53.695Z,42696.00
2023-06-19T10:36:49.450Z,65535.00
2023-06-19T10:37:44.615Z,65535.00
2023-06-19T10:38:39.996Z,65535.00
2023-06-19T10:39:35.473Z,65535.00
2023-06-19T10:40:31.058Z,65535.00
2023-06-19T10:41:26.561Z,65535.00
2023-06-19T10:42:21.794Z,65535.00
2023-06-19T10:43:17.364Z,65535.00
2023-06-19T10:44:12.759Z,65535.00
2023-06-19T10:45:08.361Z,65535.00
2023-06-19T10:46:03.938Z,65535.00
2023-06-19T10:46:59.174Z,65535.00
2023-06-19T10:47:54.504Z,65535.00
2023-06-19T10:48:50.094Z,65535.00
2023-06-19T10:49:45.392Z,65535.00
2023-06-19T10:50:41.025Z,65535.00
2023-06-19T10:51:36.548Z,65535.00
2023-06-19T10:52:31.965Z,65535.00
2023-06-19T10:53:27.455Z,65535.00
2023-06-19T10:54:22.909Z,65535.00
2023-06-19T10:55:18.605Z,65535.00
2023-06-19T10:56:13.929Z,65535.00
2023-06-19T10:57:09.303Z,65535.00
2023-06-19T10:58:04.876Z,65535.00
2023-06-19T10:59:00.267Z,65535.00
2023-06-19T10:59:55.706Z,65535.00
2023-06-19T11:00:51.248Z,65535.00
2023-06-19T11:01:46.694Z,65535.00
2023-06-19T11:02:41.995Z,65535.00
2023-06-19T11:03:37.525Z,65535.00
2023-06-19T11:04:32.960Z,65535.00
2023-06-19T11:05:28.648Z,65535.00
2023-06-19T11:06:24.205Z,65535.00
2023-06-19T11:07:19.812Z,65535.00
2023-06-19T11:08:15.127Z,65535.00
2023-06-19T11:09:10.664Z,65535.00
2023-06-19T11:10:06.264Z,65535.00
2023-06-19T11:11:01.932Z,65535.00
2023-06-19T11:11:57.200Z,65535.00
2023-06-19T11:12:52.714Z,65535.00
2023-06-19T11:13:48.308Z,65535.00
2023-06-19T11:14:43.909Z,65535.00
2023-06-19T11:15:39.301Z,65535.00
2023-06-19T11:16:34.982Z,65535.00
2023-06-19T11:17:30.216Z,65535.00
2023-06-19T11:18:25.654Z,65535.00
2023-06-19T11:19:21.155Z,65535.00
2023-06-19T11:20:16.757Z,65535.00
2023-06-19T11:21:12.275Z,65535.00
2023-06-19T11:22:07.624Z,65535.00
2023-06-19T11:23:03.171Z,65535.00